Sonoma, California
Current Conditions -  °F | °C
As of 1:55 AM on Sunday 25 Jan 2015 (Local Time) from KO69 Reporting Station
Overcast Overcast  
Wind Chill: 41°   Ceiling: 300
Heat Index: 45°   Visibility: 1.7mi
Dew Point: 45°   Wind: 7mph
Humidity: 100%   Direction: 140°SE
Pressure: 30.18"   Gusts: NA
Location:  38.29°N, 122.45°W
Report Text: KO69 250955Z AUTO 14006KT 1 3/4SM OVC003 07/07 A3018 RMK AO1
Loading
Personal Weather Stations






























Interactive Weather Map New forecast layout! Learn more

10-Day Weather Forecast

Advertisements
Track Severe Weather on mobile